CheckWX is a tool to help pilots better visualize weather data.  It is not intended as a substitute for an official pre-flight weather briefing.

15:04:12 UTC

KPHD METAR
Harry Clever Field Airport
New Philadelphia, Ohio, USA
Current

11 mins ago

KPHD 211453Z AUTO 25006KT 10SM SCT025 BKN043 30/24 A2997 RMK AO2 SLP138 T03000239 55000
Observed
Jul-21 @ 14:53 UTC
Wind
  • 250° at 6 KTS
Visibility
10 SM
Flight Rules
VFR
Cloud Levels
  • Scattered at 2,500' AGL
  • Broken at 4,300' AGL
Temperature
30°C / 86°F
Dewpoint
24°C / 75°F
Heat Index
35°C / 95°F
Humidity
70%
Altimeter
29.97" Hg
Pressure
1014.92 hPa
Previous

41 mins ago

KPHD 211423Z AUTO 00000KT 10SM BKN023 30/24 A2996 RMK AO2 T03000244
Observed
Jul-21 @ 14:23 UTC
Visibility
10 SM
Flight Rules
MVFR
Cloud Levels
  • Broken at 2,300' AGL
Temperature
30°C / 86°F
Dewpoint
24°C / 75°F
Heat Index
35°C / 95°F
Humidity
70%
Altimeter
29.96" Hg
Pressure
1014.52 hPa
Previous

1 hour ago

KPHD 211353Z AUTO 30003KT 10SM CLR 29/24 A2996 RMK AO2 SLP137 T02940244
Observed
Jul-21 @ 13:53 UTC
Wind
  • 300° at 3 KTS
Visibility
10 SM
Flight Rules
VFR
Cloud Levels
  • Clear skies
Temperature
29°C / 84°F
Dewpoint
24°C / 75°F
Heat Index
33°C / 92°F
Humidity
74%
Altimeter
29.96" Hg
Pressure
1014.52 hPa